sensor_id;sensor_type;location;lat;lon;timestamp;pressure;altitude;pressure_sealevel;temperature
65569;BMP180;52211;50.154;8.682;2022-09-09T00:02:15;99551.00;;;22.60
65569;BMP180;52211;50.154;8.682;2022-09-09T00:07:58;99546.00;;;22.60
65569;BMP180;52211;50.154;8.682;2022-09-09T00:10:38;99539.00;;;22.60
65569;BMP180;52211;50.154;8.682;2022-09-09T00:16:04;99539.00;;;22.60
65569;BMP180;52211;50.154;8.682;2022-09-09T00:19:05;99540.00;;;22.50
65569;BMP180;52211;50.154;8.682;2022-09-09T00:21:39;99541.00;;;22.50
65569;BMP180;52211;50.154;8.682;2022-09-09T00:24:29;99537.00;;;22.50
65569;BMP180;52211;50.154;8.682;2022-09-09T00:27:24;99539.00;;;22.50
65569;BMP180;52211;50.154;8.682;2022-09-09T00:30:17;99530.00;;;22.40
65569;BMP180;52211;50.154;8.682;2022-09-09T00:32:54;99530.00;;;22.40
65569;BMP180;52211;50.154;8.682;2022-09-09T00:38:13;99524.00;;;22.30
65569;BMP180;52211;50.154;8.682;2022-09-09T00:40:56;99522.00;;;22.30
65569;BMP180;52211;50.154;8.682;2022-09-09T00:46:26;99533.00;;;22.20
65569;BMP180;52211;50.154;8.682;2022-09-09T00:57:53;99536.00;;;22.10
65569;BMP180;52211;50.154;8.682;2022-09-09T01:09:24;99537.00;;;22.00
65569;BMP180;52211;50.154;8.682;2022-09-09T01:17:24;99539.00;;;21.90
65569;BMP180;52211;50.154;8.682;2022-09-09T01:20:08;99542.00;;;21.90
65569;BMP180;52211;50.154;8.682;2022-09-09T01:26:33;99529.00;;;21.90
65569;BMP180;52211;50.154;8.682;2022-09-09T01:29:17;99526.00;;;21.90
65569;BMP180;52211;50.154;8.682;2022-09-09T01:35:10;99534.00;;;21.90
65569;BMP180;52211;50.154;8.682;2022-09-09T01:37:38;99534.00;;;21.90
65569;BMP180;52211;50.154;8.682;2022-09-09T01:40:06;99535.00;;;21.90
65569;BMP180;52211;50.154;8.682;2022-09-09T01:42:35;99538.00;;;21.90
65569;BMP180;52211;50.154;8.682;2022-09-09T01:45:06;99529.00;;;21.80
65569;BMP180;52211;50.154;8.682;2022-09-09T01:47:34;99533.00;;;21.90
65569;BMP180;52211;50.154;8.682;2022-09-09T01:50:02;99532.00;;;21.80
65569;BMP180;52211;50.154;8.682;2022-09-09T01:52:36;99531.00;;;21.80
65569;BMP180;52211;50.154;8.682;2022-09-09T01:55:06;99525.00;;;21.90
65569;BMP180;52211;50.154;8.682;2022-09-09T02:00:55;99524.00;;;21.80
65569;BMP180;52211;50.154;8.682;2022-09-09T02:03:32;99525.00;;;21.80
65569;BMP180;52211;50.154;8.682;2022-09-09T02:06:32;99527.00;;;21.80
65569;BMP180;52211;50.154;8.682;2022-09-09T02:09:05;99527.00;;;21.80
65569;BMP180;52211;50.154;8.682;2022-09-09T02:11:37;99528.00;;;21.80
65569;BMP180;52211;50.154;8.682;2022-09-09T02:14:16;99532.00;;;21.70
65569;BMP180;52211;50.154;8.682;2022-09-09T02:16:52;99534.00;;;21.70
65569;BMP180;52211;50.154;8.682;2022-09-09T02:19:27;99529.00;;;21.70
65569;BMP180;52211;50.154;8.682;2022-09-09T02:22:00;99531.00;;;21.70
65569;BMP180;52211;50.154;8.682;2022-09-09T02:24:32;99526.00;;;21.80
65569;BMP180;52211;50.154;8.682;2022-09-09T02:27:08;99534.00;;;21.80
65569;BMP180;52211;50.154;8.682;2022-09-09T02:29:45;99546.00;;;21.80
65569;BMP180;52211;50.154;8.682;2022-09-09T02:32:23;99554.00;;;21.70
65569;BMP180;52211;50.154;8.682;2022-09-09T02:35:03;99551.00;;;21.70
65569;BMP180;52211;50.154;8.682;2022-09-09T02:37:38;99549.00;;;21.70
65569;BMP180;52211;50.154;8.682;2022-09-09T02:40:11;99556.00;;;21.70
65569;BMP180;52211;50.154;8.682;2022-09-09T02:42:45;99548.00;;;21.80
65569;BMP180;52211;50.154;8.682;2022-09-09T02:45:26;99542.00;;;21.80
65569;BMP180;52211;50.154;8.682;2022-09-09T02:51:09;99539.00;;;21.80
65569;BMP180;52211;50.154;8.682;2022-09-09T02:54:08;99540.00;;;21.80
65569;BMP180;52211;50.154;8.682;2022-09-09T02:56:42;99535.00;;;21.80
65569;BMP180;52211;50.154;8.682;2022-09-09T02:59:13;99541.00;;;21.80
65569;BMP180;52211;50.154;8.682;2022-09-09T03:01:40;99545.00;;;21.80
65569;BMP180;52211;50.154;8.682;2022-09-09T03:04:10;99542.00;;;21.80
65569;BMP180;52211;50.154;8.682;2022-09-09T03:06:37;99538.00;;;21.90
65569;BMP180;52211;50.154;8.682;2022-09-09T03:09:06;99547.00;;;21.90
65569;BMP180;52211;50.154;8.682;2022-09-09T03:11:37;99543.00;;;21.90
65569;BMP180;52211;50.154;8.682;2022-09-09T03:14:05;99537.00;;;21.90
65569;BMP180;52211;50.154;8.682;2022-09-09T03:16:34;99538.00;;;21.90
65569;BMP180;52211;50.154;8.682;2022-09-09T03:19:01;99531.00;;;21.90
65569;BMP180;52211;50.154;8.682;2022-09-09T03:21:28;99527.00;;;21.90
65569;BMP180;52211;50.154;8.682;2022-09-09T03:23:58;99521.00;;;21.90
65569;BMP180;52211;50.154;8.682;2022-09-09T03:26:24;99520.00;;;21.90
65569;BMP180;52211;50.154;8.682;2022-09-09T03:28:51;99522.00;;;21.90
65569;BMP180;52211;50.154;8.682;2022-09-09T03:31:26;99515.00;;;21.90
65569;BMP180;52211;50.154;8.682;2022-09-09T03:33:59;99520.00;;;21.90
65569;BMP180;52211;50.154;8.682;2022-09-09T03:36:29;99518.00;;;21.90
65569;BMP180;52211;50.154;8.682;2022-09-09T03:38:55;99526.00;;;21.90
65569;BMP180;52211;50.154;8.682;2022-09-09T03:41:23;99533.00;;;21.90
65569;BMP180;52211;50.154;8.682;2022-09-09T03:43:53;99531.00;;;21.80
65569;BMP180;52211;50.154;8.682;2022-09-09T03:46:23;99535.00;;;21.80
65569;BMP180;52211;50.154;8.682;2022-09-09T03:48:51;99531.00;;;21.80
65569;BMP180;52211;50.154;8.682;2022-09-09T03:51:23;99539.00;;;21.70
65569;BMP180;52211;50.154;8.682;2022-09-09T03:53:56;99531.00;;;21.70
65569;BMP180;52211;50.154;8.682;2022-09-09T03:56:27;99523.00;;;21.70
65569;BMP180;52211;50.154;8.682;2022-09-09T03:58:54;99526.00;;;21.80
65569;BMP180;52211;50.154;8.682;2022-09-09T04:01:23;99520.00;;;21.80
65569;BMP180;52211;50.154;8.682;2022-09-09T04:03:50;99522.00;;;21.80
65569;BMP180;52211;50.154;8.682;2022-09-09T04:06:17;99519.00;;;21.80
65569;BMP180;52211;50.154;8.682;2022-09-09T04:08:44;99517.00;;;21.80
65569;BMP180;52211;50.154;8.682;2022-09-09T04:11:11;99514.00;;;21.80
65569;BMP180;52211;50.154;8.682;2022-09-09T04:13:40;99513.00;;;21.80
65569;BMP180;52211;50.154;8.682;2022-09-09T04:16:12;99524.00;;;21.70
65569;BMP180;52211;50.154;8.682;2022-09-09T04:18:45;99515.00;;;21.70
65569;BMP180;52211;50.154;8.682;2022-09-09T04:21:12;99519.00;;;21.70
65569;BMP180;52211;50.154;8.682;2022-09-09T04:23:39;99526.00;;;21.70
65569;BMP180;52211;50.154;8.682;2022-09-09T04:26:08;99523.00;;;21.70
65569;BMP180;52211;50.154;8.682;2022-09-09T04:28:37;99516.00;;;21.70
65569;BMP180;52211;50.154;8.682;2022-09-09T04:31:08;99520.00;;;21.70
65569;BMP180;52211;50.154;8.682;2022-09-09T04:33:38;99516.00;;;21.70
65569;BMP180;52211;50.154;8.682;2022-09-09T04:36:07;99508.00;;;21.70
65569;BMP180;52211;50.154;8.682;2022-09-09T04:38:37;99516.00;;;21.80
65569;BMP180;52211;50.154;8.682;2022-09-09T04:41:07;99503.00;;;21.80
65569;BMP180;52211;50.154;8.682;2022-09-09T04:43:37;99503.00;;;21.80
65569;BMP180;52211;50.154;8.682;2022-09-09T04:46:09;99505.00;;;21.90
65569;BMP180;52211;50.154;8.682;2022-09-09T04:48:36;99505.00;;;21.90
65569;BMP180;52211;50.154;8.682;2022-09-09T04:51:08;99496.00;;;21.90
65569;BMP180;52211;50.154;8.682;2022-09-09T04:53:37;99497.00;;;21.90
65569;BMP180;52211;50.154;8.682;2022-09-09T04:56:15;99503.00;;;21.90
65569;BMP180;52211;50.154;8.682;2022-09-09T04:58:43;99512.00;;;21.90
65569;BMP180;52211;50.154;8.682;2022-09-09T05:01:23;99514.00;;;21.90
65569;BMP180;52211;50.154;8.682;2022-09-09T05:03:51;99522.00;;;21.90
65569;BMP180;52211;50.154;8.682;2022-09-09T05:06:23;99519.00;;;21.80
65569;BMP180;52211;50.154;8.682;2022-09-09T05:08:52;99524.00;;;21.80
65569;BMP180;52211;50.154;8.682;2022-09-09T05:11:26;99533.00;;;21.80
65569;BMP180;52211;50.154;8.682;2022-09-09T05:13:56;99541.00;;;21.80
65569;BMP180;52211;50.154;8.682;2022-09-09T05:16:26;99537.00;;;21.80
65569;BMP180;52211;50.154;8.682;2022-09-09T05:18:57;99540.00;;;21.80
65569;BMP180;52211;50.154;8.682;2022-09-09T05:21:24;99541.00;;;21.80
65569;BMP180;52211;50.154;8.682;2022-09-09T05:23:54;99535.00;;;21.80
65569;BMP180;52211;50.154;8.682;2022-09-09T05:26:24;99547.00;;;21.80
65569;BMP180;52211;50.154;8.682;2022-09-09T05:28:50;99551.00;;;21.80
65569;BMP180;52211;50.154;8.682;2022-09-09T05:31:20;99543.00;;;21.80
65569;BMP180;52211;50.154;8.682;2022-09-09T05:33:48;99550.00;;;21.80
65569;BMP180;52211;50.154;8.682;2022-09-09T05:36:21;99550.00;;;21.80
65569;BMP180;52211;50.154;8.682;2022-09-09T05:38:51;99552.00;;;21.80
65569;BMP180;52211;50.154;8.682;2022-09-09T05:41:22;99566.00;;;21.80
65569;BMP180;52211;50.154;8.682;2022-09-09T05:43:49;99568.00;;;21.80
65569;BMP180;52211;50.154;8.682;2022-09-09T05:46:20;99564.00;;;21.80
65569;BMP180;52211;50.154;8.682;2022-09-09T05:48:53;99568.00;;;21.80
65569;BMP180;52211;50.154;8.682;2022-09-09T05:51:27;99578.00;;;21.80
65569;BMP180;52211;50.154;8.682;2022-09-09T05:53:56;99577.00;;;21.80
65569;BMP180;52211;50.154;8.682;2022-09-09T05:56:28;99582.00;;;21.80
65569;BMP180;52211;50.154;8.682;2022-09-09T05:59:01;99585.00;;;21.90
65569;BMP180;52211;50.154;8.682;2022-09-09T06:01:36;99584.00;;;21.90
65569;BMP180;52211;50.154;8.682;2022-09-09T06:04:07;99580.00;;;21.90
65569;BMP180;52211;50.154;8.682;2022-09-09T06:06:39;99584.00;;;21.90
65569;BMP180;52211;50.154;8.682;2022-09-09T06:09:09;99587.00;;;21.90
65569;BMP180;52211;50.154;8.682;2022-09-09T06:11:40;99601.00;;;21.90
65569;BMP180;52211;50.154;8.682;2022-09-09T06:14:09;99596.00;;;21.90
65569;BMP180;52211;50.154;8.682;2022-09-09T06:16:41;99591.00;;;21.90
65569;BMP180;52211;50.154;8.682;2022-09-09T06:19:13;99586.00;;;21.90
65569;BMP180;52211;50.154;8.682;2022-09-09T06:21:45;99586.00;;;21.90
65569;BMP180;52211;50.154;8.682;2022-09-09T06:24:18;99580.00;;;21.90
65569;BMP180;52211;50.154;8.682;2022-09-09T06:26:48;99581.00;;;21.90
65569;BMP180;52211;50.154;8.682;2022-09-09T06:29:17;99583.00;;;22.00
65569;BMP180;52211;50.154;8.682;2022-09-09T06:31:44;99586.00;;;22.00
65569;BMP180;52211;50.154;8.682;2022-09-09T06:34:14;99584.00;;;22.00
65569;BMP180;52211;50.154;8.682;2022-09-09T06:36:43;99583.00;;;22.00
65569;BMP180;52211;50.154;8.682;2022-09-09T06:39:12;99583.00;;;22.00
65569;BMP180;52211;50.154;8.682;2022-09-09T06:41:41;99578.00;;;22.00
65569;BMP180;52211;50.154;8.682;2022-09-09T06:44:09;99586.00;;;22.00
65569;BMP180;52211;50.154;8.682;2022-09-09T06:46:38;99590.00;;;22.10
65569;BMP180;52211;50.154;8.682;2022-09-09T06:49:08;99598.00;;;22.10
65569;BMP180;52211;50.154;8.682;2022-09-09T06:51:38;99595.00;;;22.10
65569;BMP180;52211;50.154;8.682;2022-09-09T06:54:12;99594.00;;;22.10
65569;BMP180;52211;50.154;8.682;2022-09-09T06:56:41;99598.00;;;22.20
65569;BMP180;52211;50.154;8.682;2022-09-09T06:59:10;99596.00;;;22.20
65569;BMP180;52211;50.154;8.682;2022-09-09T07:01:42;99595.00;;;22.30
65569;BMP180;52211;50.154;8.682;2022-09-09T07:04:19;99589.00;;;22.30
65569;BMP180;52211;50.154;8.682;2022-09-09T07:06:49;99600.00;;;22.40
65569;BMP180;52211;50.154;8.682;2022-09-09T07:09:16;99591.00;;;22.40
65569;BMP180;52211;50.154;8.682;2022-09-09T07:11:49;99591.00;;;22.40
65569;BMP180;52211;50.154;8.682;2022-09-09T07:14:21;99602.00;;;22.50
65569;BMP180;52211;50.154;8.682;2022-09-09T07:16:51;99602.00;;;22.60
65569;BMP180;52211;50.154;8.682;2022-09-09T07:19:25;99601.00;;;22.60
65569;BMP180;52211;50.154;8.682;2022-09-09T07:21:57;99602.00;;;22.60
65569;BMP180;52211;50.154;8.682;2022-09-09T07:24:23;99599.00;;;22.60
65569;BMP180;52211;50.154;8.682;2022-09-09T07:26:53;99598.00;;;22.70
65569;BMP180;52211;50.154;8.682;2022-09-09T07:29:24;99603.00;;;22.70
65569;BMP180;52211;50.154;8.682;2022-09-09T07:31:53;99609.00;;;22.70
65569;BMP180;52211;50.154;8.682;2022-09-09T07:34:20;99616.00;;;22.70
65569;BMP180;52211;50.154;8.682;2022-09-09T07:36:47;99604.00;;;22.80
65569;BMP180;52211;50.154;8.682;2022-09-09T07:39:21;99602.00;;;22.80
65569;BMP180;52211;50.154;8.682;2022-09-09T07:41:51;99595.00;;;22.80
65569;BMP180;52211;50.154;8.682;2022-09-09T07:44:27;99603.00;;;22.80
65569;BMP180;52211;50.154;8.682;2022-09-09T07:46:54;99604.00;;;22.80
65569;BMP180;52211;50.154;8.682;2022-09-09T07:49:28;99605.00;;;22.90
65569;BMP180;52211;50.154;8.682;2022-09-09T07:52:01;99607.00;;;22.90
65569;BMP180;52211;50.154;8.682;2022-09-09T07:54:30;99612.00;;;22.90
65569;BMP180;52211;50.154;8.682;2022-09-09T07:57:01;99616.00;;;22.90
65569;BMP180;52211;50.154;8.682;2022-09-09T07:59:30;99622.00;;;23.00
65569;BMP180;52211;50.154;8.682;2022-09-09T08:01:57;99630.00;;;23.00
65569;BMP180;52211;50.154;8.682;2022-09-09T08:04:26;99634.00;;;23.00
65569;BMP180;52211;50.154;8.682;2022-09-09T08:06:59;99637.00;;;23.00
65569;BMP180;52211;50.154;8.682;2022-09-09T08:09:27;99639.00;;;23.00
65569;BMP180;52211;50.154;8.682;2022-09-09T08:11:58;99647.00;;;23.00
65569;BMP180;52211;50.154;8.682;2022-09-09T08:14:27;99640.00;;;23.00
65569;BMP180;52211;50.154;8.682;2022-09-09T08:16:56;99641.00;;;23.10
65569;BMP180;52211;50.154;8.682;2022-09-09T08:19:28;99648.00;;;23.10
65569;BMP180;52211;50.154;8.682;2022-09-09T08:21:56;99640.00;;;23.10
65569;BMP180;52211;50.154;8.682;2022-09-09T08:24:25;99652.00;;;23.10
65569;BMP180;52211;50.154;8.682;2022-09-09T08:26:52;99645.00;;;23.20
65569;BMP180;52211;50.154;8.682;2022-09-09T08:29:23;99647.00;;;23.20
65569;BMP180;52211;50.154;8.682;2022-09-09T08:31:56;99653.00;;;23.30
65569;BMP180;52211;50.154;8.682;2022-09-09T08:34:25;99646.00;;;23.30
65569;BMP180;52211;50.154;8.682;2022-09-09T08:36:57;99647.00;;;23.40
65569;BMP180;52211;50.154;8.682;2022-09-09T08:39:26;99647.00;;;23.50
65569;BMP180;52211;50.154;8.682;2022-09-09T08:44:49;99647.00;;;23.50
65569;BMP180;52211;50.154;8.682;2022-09-09T08:58:24;99635.00;;;23.80
65569;BMP180;52211;50.154;8.682;2022-09-09T09:11:40;99615.00;;;24.10
65569;BMP180;52211;50.154;8.682;2022-09-09T09:14:27;99626.00;;;24.10
65569;BMP180;52211;50.154;8.682;2022-09-09T09:17:04;99616.00;;;24.20
65569;BMP180;52211;50.154;8.682;2022-09-09T09:19:34;99624.00;;;24.30
65569;BMP180;52211;50.154;8.682;2022-09-09T09:22:26;99619.00;;;24.30
65569;BMP180;52211;50.154;8.682;2022-09-09T09:25:21;99614.00;;;24.30
65569;BMP180;52211;50.154;8.682;2022-09-09T09:30:36;99618.00;;;24.40
65569;BMP180;52211;50.154;8.682;2022-09-09T09:33:20;99623.00;;;24.50
65569;BMP180;52211;50.154;8.682;2022-09-09T09:35:55;99626.00;;;24.50
65569;BMP180;52211;50.154;8.682;2022-09-09T09:38:27;99621.00;;;24.50
65569;BMP180;52211;50.154;8.682;2022-09-09T09:41:19;99622.00;;;24.60
65569;BMP180;52211;50.154;8.682;2022-09-09T09:43:58;99617.00;;;24.70
65569;BMP180;52211;50.154;8.682;2022-09-09T09:46:25;99626.00;;;24.70
65569;BMP180;52211;50.154;8.682;2022-09-09T09:49:03;99631.00;;;24.70
65569;BMP180;52211;50.154;8.682;2022-09-09T09:51:33;99625.00;;;24.80
65569;BMP180;52211;50.154;8.682;2022-09-09T09:54:27;99609.00;;;24.70
65569;BMP180;52211;50.154;8.682;2022-09-09T09:56:56;99602.00;;;24.80
65569;BMP180;52211;50.154;8.682;2022-09-09T09:59:35;99615.00;;;24.80
65569;BMP180;52211;50.154;8.682;2022-09-09T10:02:19;99612.00;;;24.80
65569;BMP180;52211;50.154;8.682;2022-09-09T10:04:46;99619.00;;;24.80
65569;BMP180;52211;50.154;8.682;2022-09-09T10:07:22;99615.00;;;24.90
65569;BMP180;52211;50.154;8.682;2022-09-09T10:09:55;99615.00;;;25.00
65569;BMP180;52211;50.154;8.682;2022-09-09T10:38:17;99610.00;;;25.60
65569;BMP180;52211;50.154;8.682;2022-09-09T10:57:50;99599.00;;;24.70
65569;BMP180;52211;50.154;8.682;2022-09-09T11:00:30;99605.00;;;24.50
65569;BMP180;52211;50.154;8.682;2022-09-09T11:03:06;99600.00;;;24.20
65569;BMP180;52211;50.154;8.682;2022-09-09T11:05:49;99599.00;;;24.10
65569;BMP180;52211;50.154;8.682;2022-09-09T11:08:27;99602.00;;;23.90
65569;BMP180;52211;50.154;8.682;2022-09-09T11:11:15;99599.00;;;23.90
65569;BMP180;52211;50.154;8.682;2022-09-09T11:14:15;99590.00;;;23.90
65569;BMP180;52211;50.154;8.682;2022-09-09T11:16:52;99589.00;;;24.00
65569;BMP180;52211;50.154;8.682;2022-09-09T11:19:55;99588.00;;;24.00
65569;BMP180;52211;50.154;8.682;2022-09-09T11:22:42;99588.00;;;24.10
65569;BMP180;52211;50.154;8.682;2022-09-09T11:25:29;99585.00;;;24.30
65569;BMP180;52211;50.154;8.682;2022-09-09T11:38:15;99592.00;;;24.80
65569;BMP180;52211;50.154;8.682;2022-09-09T11:40:42;99594.00;;;24.90
65569;BMP180;52211;50.154;8.682;2022-09-09T11:43:16;99588.00;;;24.90
65569;BMP180;52211;50.154;8.682;2022-09-09T11:45:53;99588.00;;;24.90
65569;BMP180;52211;50.154;8.682;2022-09-09T11:48:38;99588.00;;;24.90
65569;BMP180;52211;50.154;8.682;2022-09-09T11:56:42;99584.00;;;25.10
65569;BMP180;52211;50.154;8.682;2022-09-09T11:59:25;99580.00;;;25.20
65569;BMP180;52211;50.154;8.682;2022-09-09T12:02:09;99581.00;;;25.30
65569;BMP180;52211;50.154;8.682;2022-09-09T12:07:41;99585.00;;;25.30
65569;BMP180;52211;50.154;8.682;2022-09-09T12:10:31;99598.00;;;25.30
65569;BMP180;52211;50.154;8.682;2022-09-09T12:13:22;99591.00;;;25.20
65569;BMP180;52211;50.154;8.682;2022-09-09T12:15:55;99603.00;;;25.20
65569;BMP180;52211;50.154;8.682;2022-09-09T12:24:09;99590.00;;;25.10
65569;BMP180;52211;50.154;8.682;2022-09-09T12:27:00;99581.00;;;25.00
65569;BMP180;52211;50.154;8.682;2022-09-09T12:30:07;99580.00;;;25.00
65569;BMP180;52211;50.154;8.682;2022-09-09T12:32:38;99573.00;;;25.00
65569;BMP180;52211;50.154;8.682;2022-09-09T12:35:20;99569.00;;;25.00
65569;BMP180;52211;50.154;8.682;2022-09-09T12:38:01;99576.00;;;25.00
65569;BMP180;52211;50.154;8.682;2022-09-09T12:40:34;99564.00;;;25.00
65569;BMP180;52211;50.154;8.682;2022-09-09T12:43:22;99557.00;;;25.00
65569;BMP180;52211;50.154;8.682;2022-09-09T12:45:54;99563.00;;;25.00
65569;BMP180;52211;50.154;8.682;2022-09-09T12:48:36;99564.00;;;24.90
65569;BMP180;52211;50.154;8.682;2022-09-09T12:51:19;99580.00;;;24.90
65569;BMP180;52211;50.154;8.682;2022-09-09T12:53:47;99581.00;;;24.90
65569;BMP180;52211;50.154;8.682;2022-09-09T12:56:31;99608.00;;;24.80
65569;BMP180;52211;50.154;8.682;2022-09-09T12:58:59;99598.00;;;24.70
65569;BMP180;52211;50.154;8.682;2022-09-09T13:01:36;99594.00;;;24.50
65569;BMP180;52211;50.154;8.682;2022-09-09T13:04:19;99603.00;;;24.30
65569;BMP180;52211;50.154;8.682;2022-09-09T13:06:49;99596.00;;;24.20
65569;BMP180;52211;50.154;8.682;2022-09-09T13:09:19;99600.00;;;24.10
65569;BMP180;52211;50.154;8.682;2022-09-09T13:11:54;99591.00;;;24.00
65569;BMP180;52211;50.154;8.682;2022-09-09T13:14:32;99593.00;;;24.00
65569;BMP180;52211;50.154;8.682;2022-09-09T13:17:04;99588.00;;;24.00
65569;BMP180;52211;50.154;8.682;2022-09-09T13:19:36;99583.00;;;24.00
65569;BMP180;52211;50.154;8.682;2022-09-09T13:22:36;99585.00;;;24.10
65569;BMP180;52211;50.154;8.682;2022-09-09T13:25:19;99596.00;;;24.20
65569;BMP180;52211;50.154;8.682;2022-09-09T13:28:04;99596.00;;;24.40
65569;BMP180;52211;50.154;8.682;2022-09-09T13:30:37;99592.00;;;24.60
65569;BMP180;52211;50.154;8.682;2022-09-09T13:38:29;99570.00;;;25.20
65569;BMP180;52211;50.154;8.682;2022-09-09T13:41:00;99582.00;;;25.50
65569;BMP180;52211;50.154;8.682;2022-09-09T13:43:45;99579.00;;;25.80
65569;BMP180;52211;50.154;8.682;2022-09-09T13:46:40;99580.00;;;26.20
65569;BMP180;52211;50.154;8.682;2022-09-09T13:51:41;99569.00;;;26.80
65569;BMP180;52211;50.154;8.682;2022-09-09T13:54:11;99570.00;;;27.10
65569;BMP180;52211;50.154;8.682;2022-09-09T13:56:42;99569.00;;;27.40
65569;BMP180;52211;50.154;8.682;2022-09-09T13:59:14;99564.00;;;27.70
65569;BMP180;52211;50.154;8.682;2022-09-09T14:01:42;99575.00;;;28.00
65569;BMP180;52211;50.154;8.682;2022-09-09T14:04:12;99568.00;;;28.10
65569;BMP180;52211;50.154;8.682;2022-09-09T14:06:39;99567.00;;;28.20
65569;BMP180;52211;50.154;8.682;2022-09-09T14:09:13;99572.00;;;28.20
65569;BMP180;52211;50.154;8.682;2022-09-09T14:11:44;99594.00;;;28.20
65569;BMP180;52211;50.154;8.682;2022-09-09T14:14:16;99585.00;;;28.10
65569;BMP180;52211;50.154;8.682;2022-09-09T14:16:45;99587.00;;;27.80
65569;BMP180;52211;50.154;8.682;2022-09-09T14:19:16;99591.00;;;27.60
65569;BMP180;52211;50.154;8.682;2022-09-09T14:21:44;99582.00;;;27.30
65569;BMP180;52211;50.154;8.682;2022-09-09T14:24:14;99586.00;;;27.10
65569;BMP180;52211;50.154;8.682;2022-09-09T14:26:43;99584.00;;;26.80
65569;BMP180;52211;50.154;8.682;2022-09-09T14:29:10;99582.00;;;26.60
65569;BMP180;52211;50.154;8.682;2022-09-09T14:31:37;99577.00;;;26.40
65569;BMP180;52211;50.154;8.682;2022-09-09T14:34:04;99575.00;;;26.20
65569;BMP180;52211;50.154;8.682;2022-09-09T14:36:33;99569.00;;;26.00
65569;BMP180;52211;50.154;8.682;2022-09-09T14:39:01;99573.00;;;25.90
65569;BMP180;52211;50.154;8.682;2022-09-09T14:41:31;99569.00;;;25.70
65569;BMP180;52211;50.154;8.682;2022-09-09T14:44:01;99567.00;;;25.60
65569;BMP180;52211;50.154;8.682;2022-09-09T14:46:32;99550.00;;;25.40
65569;BMP180;52211;50.154;8.682;2022-09-09T14:49:00;99550.00;;;25.30
65569;BMP180;52211;50.154;8.682;2022-09-09T14:51:26;99543.00;;;25.20
65569;BMP180;52211;50.154;8.682;2022-09-09T14:53:59;99551.00;;;25.10
65569;BMP180;52211;50.154;8.682;2022-09-09T14:56:32;99546.00;;;25.00
65569;BMP180;52211;50.154;8.682;2022-09-09T14:59:03;99546.00;;;25.00
65569;BMP180;52211;50.154;8.682;2022-09-09T15:01:31;99537.00;;;25.00
65569;BMP180;52211;50.154;8.682;2022-09-09T15:04:04;99538.00;;;25.10
65569;BMP180;52211;50.154;8.682;2022-09-09T15:06:37;99532.00;;;25.20
65569;BMP180;52211;50.154;8.682;2022-09-09T15:09:08;99536.00;;;25.30
65569;BMP180;52211;50.154;8.682;2022-09-09T15:11:38;99534.00;;;25.40
65569;BMP180;52211;50.154;8.682;2022-09-09T15:14:08;99536.00;;;25.50
65569;BMP180;52211;50.154;8.682;2022-09-09T15:16:39;99542.00;;;25.60
65569;BMP180;52211;50.154;8.682;2022-09-09T15:19:09;99548.00;;;25.70
65569;BMP180;52211;50.154;8.682;2022-09-09T15:21:39;99543.00;;;25.70
65569;BMP180;52211;50.154;8.682;2022-09-09T15:24:06;99553.00;;;25.80
65569;BMP180;52211;50.154;8.682;2022-09-09T15:26:35;99548.00;;;25.90
65569;BMP180;52211;50.154;8.682;2022-09-09T15:29:08;99542.00;;;25.90
65569;BMP180;52211;50.154;8.682;2022-09-09T15:31:36;99541.00;;;26.00
65569;BMP180;52211;50.154;8.682;2022-09-09T15:34:09;99538.00;;;26.20
65569;BMP180;52211;50.154;8.682;2022-09-09T15:36:46;99539.00;;;26.40
65569;BMP180;52211;50.154;8.682;2022-09-09T15:39:17;99545.00;;;26.60
65569;BMP180;52211;50.154;8.682;2022-09-09T15:41:48;99551.00;;;26.90
65569;BMP180;52211;50.154;8.682;2022-09-09T15:44:18;99548.00;;;27.20
65569;BMP180;52211;50.154;8.682;2022-09-09T15:46:55;99554.00;;;27.40
65569;BMP180;52211;50.154;8.682;2022-09-09T15:49:26;99560.00;;;27.50
65569;BMP180;52211;50.154;8.682;2022-09-09T15:51:56;99560.00;;;27.50
65569;BMP180;52211;50.154;8.682;2022-09-09T15:54:25;99561.00;;;27.40
65569;BMP180;52211;50.154;8.682;2022-09-09T15:56:56;99555.00;;;27.30
65569;BMP180;52211;50.154;8.682;2022-09-09T15:59:29;99569.00;;;27.20
65569;BMP180;52211;50.154;8.682;2022-09-09T16:01:59;99569.00;;;26.90
65569;BMP180;52211;50.154;8.682;2022-09-09T16:04:32;99556.00;;;26.70
65569;BMP180;52211;50.154;8.682;2022-09-09T16:07:05;99570.00;;;26.50
65569;BMP180;52211;50.154;8.682;2022-09-09T16:09:37;99563.00;;;26.30
65569;BMP180;52211;50.154;8.682;2022-09-09T16:12:05;99572.00;;;26.20
65569;BMP180;52211;50.154;8.682;2022-09-09T16:14:39;99571.00;;;26.00
65569;BMP180;52211;50.154;8.682;2022-09-09T16:17:09;99570.00;;;25.90
65569;BMP180;52211;50.154;8.682;2022-09-09T16:19:36;99565.00;;;25.80
65569;BMP180;52211;50.154;8.682;2022-09-09T16:22:05;99572.00;;;25.70
65569;BMP180;52211;50.154;8.682;2022-09-09T16:24:33;99564.00;;;25.60
65569;BMP180;52211;50.154;8.682;2022-09-09T16:27:00;99572.00;;;25.60
65569;BMP180;52211;50.154;8.682;2022-09-09T16:29:27;99578.00;;;25.50
65569;BMP180;52211;50.154;8.682;2022-09-09T16:31:54;99567.00;;;25.40
65569;BMP180;52211;50.154;8.682;2022-09-09T16:34:30;99567.00;;;25.20
65569;BMP180;52211;50.154;8.682;2022-09-09T16:36:57;99568.00;;;25.20
65569;BMP180;52211;50.154;8.682;2022-09-09T16:39:27;99566.00;;;25.10
65569;BMP180;52211;50.154;8.682;2022-09-09T16:41:54;99572.00;;;25.00
65569;BMP180;52211;50.154;8.682;2022-09-09T16:44:22;99557.00;;;24.90
65569;BMP180;52211;50.154;8.682;2022-09-09T16:46:51;99569.00;;;24.90
65569;BMP180;52211;50.154;8.682;2022-09-09T16:49:31;99563.00;;;24.70
65569;BMP180;52211;50.154;8.682;2022-09-09T16:51:59;99576.00;;;24.70
65569;BMP180;52211;50.154;8.682;2022-09-09T16:54:26;99566.00;;;24.70
65569;BMP180;52211;50.154;8.682;2022-09-09T16:56:56;99576.00;;;24.60
65569;BMP180;52211;50.154;8.682;2022-09-09T16:59:25;99575.00;;;24.50
65569;BMP180;52211;50.154;8.682;2022-09-09T17:01:53;99575.00;;;24.50
65569;BMP180;52211;50.154;8.682;2022-09-09T17:04:26;99581.00;;;24.40
65569;BMP180;52211;50.154;8.682;2022-09-09T17:06:55;99580.00;;;24.40
65569;BMP180;52211;50.154;8.682;2022-09-09T17:09:25;99575.00;;;24.30
65569;BMP180;52211;50.154;8.682;2022-09-09T17:11:58;99580.00;;;24.30
65569;BMP180;52211;50.154;8.682;2022-09-09T17:14:27;99578.00;;;24.20